Elmer, Pennsylvania
Current Conditions -  °F | °C
As of 8:35 PM on Saturday 20 Dec 2014 (Local Time) from KN38 Reporting Station
Overcast Overcast  
Wind Chill: 19°   Ceiling: 1700
Heat Index: 25°   Visibility: 10mi
Dew Point: 19°   Wind: 5mph
Humidity: 80%   Direction: 20°NNE
Pressure: 30.19"   Gusts: NA
Location:  41.9252°N, 77.5198°W
Report Text: KN38 210135Z AUTO 02004KT 10SM OVC017 M04/M07 A3019 RMK AO2
Loading
Personal Weather Stations






























Interactive Weather Map New forecast layout! Learn more

10-Day Weather Forecast

Advertisements
Track Severe Weather on mobile